sensor_id;sensor_type;location;lat;lon;timestamp;P1;durP1;ratioP1;P2;durP2;ratioP2
23728;SDS011;12045;60.214;24.724;2023-12-29T00:02:08;3.30;;;1.40;;
23728;SDS011;12045;60.214;24.724;2023-12-29T00:04:35;2.27;;;1.00;;
23728;SDS011;12045;60.214;24.724;2023-12-29T00:07:03;2.27;;;1.47;;
23728;SDS011;12045;60.214;24.724;2023-12-29T00:09:32;1.77;;;1.13;;
23728;SDS011;12045;60.214;24.724;2023-12-29T00:12:06;2.83;;;1.70;;
23728;SDS011;12045;60.214;24.724;2023-12-29T00:14:39;2.93;;;1.30;;
23728;SDS011;12045;60.214;24.724;2023-12-29T00:17:07;3.13;;;1.23;;
23728;SDS011;12045;60.214;24.724;2023-12-29T00:19:34;3.27;;;1.30;;
23728;SDS011;12045;60.214;24.724;2023-12-29T00:22:03;1.63;;;1.17;;
23728;SDS011;12045;60.214;24.724;2023-12-29T00:24:31;4.10;;;1.53;;
23728;SDS011;12045;60.214;24.724;2023-12-29T00:26:59;2.80;;;1.30;;
23728;SDS011;12045;60.214;24.724;2023-12-29T00:29:29;2.13;;;1.50;;
23728;SDS011;12045;60.214;24.724;2023-12-29T00:32:01;3.77;;;1.63;;
23728;SDS011;12045;60.214;24.724;2023-12-29T00:34:30;2.50;;;1.47;;
23728;SDS011;12045;60.214;24.724;2023-12-29T00:37:00;4.03;;;1.50;;
23728;SDS011;12045;60.214;24.724;2023-12-29T00:39:28;2.77;;;1.43;;
23728;SDS011;12045;60.214;24.724;2023-12-29T00:41:58;4.17;;;1.50;;
23728;SDS011;12045;60.214;24.724;2023-12-29T00:44:26;2.63;;;1.90;;
23728;SDS011;12045;60.214;24.724;2023-12-29T00:46:56;2.90;;;1.70;;
23728;SDS011;12045;60.214;24.724;2023-12-29T00:49:24;2.60;;;1.70;;
23728;SDS011;12045;60.214;24.724;2023-12-29T00:51:53;1.93;;;1.43;;
23728;SDS011;12045;60.214;24.724;2023-12-29T00:54:21;3.10;;;1.77;;
23728;SDS011;12045;60.214;24.724;2023-12-29T00:56:51;4.80;;;1.83;;
23728;SDS011;12045;60.214;24.724;2023-12-29T00:59:19;3.93;;;1.80;;
23728;SDS011;12045;60.214;24.724;2023-12-29T01:01:47;4.00;;;1.87;;
23728;SDS011;12045;60.214;24.724;2023-12-29T01:04:15;5.50;;;1.43;;
23728;SDS011;12045;60.214;24.724;2023-12-29T01:06:44;3.07;;;1.60;;
23728;SDS011;12045;60.214;24.724;2023-12-29T01:09:13;1.53;;;1.43;;
23728;SDS011;12045;60.214;24.724;2023-12-29T01:11:41;2.50;;;1.60;;
23728;SDS011;12045;60.214;24.724;2023-12-29T01:14:12;1.77;;;1.13;;
23728;SDS011;12045;60.214;24.724;2023-12-29T01:16:41;2.57;;;1.33;;
23728;SDS011;12045;60.214;24.724;2023-12-29T01:19:10;2.10;;;1.50;;
23728;SDS011;12045;60.214;24.724;2023-12-29T01:21:38;1.60;;;1.20;;
23728;SDS011;12045;60.214;24.724;2023-12-29T01:24:07;1.20;;;1.10;;
23728;SDS011;12045;60.214;24.724;2023-12-29T01:26:37;2.50;;;1.10;;
23728;SDS011;12045;60.214;24.724;2023-12-29T01:29:06;1.10;;;0.90;;
23728;SDS011;12045;60.214;24.724;2023-12-29T01:31:35;2.33;;;1.37;;
23728;SDS011;12045;60.214;24.724;2023-12-29T01:34:03;2.13;;;1.07;;
23728;SDS011;12045;60.214;24.724;2023-12-29T01:36:31;2.00;;;1.30;;
23728;SDS011;12045;60.214;24.724;2023-12-29T01:38:59;2.93;;;0.80;;
23728;SDS011;12045;60.214;24.724;2023-12-29T01:41:26;1.10;;;1.00;;
23728;SDS011;12045;60.214;24.724;2023-12-29T01:46:29;3.47;;;1.80;;
23728;SDS011;12045;60.214;24.724;2023-12-29T01:49:01;2.03;;;1.37;;
23728;SDS011;12045;60.214;24.724;2023-12-29T01:51:30;1.50;;;1.10;;
23728;SDS011;12045;60.214;24.724;2023-12-29T01:53:59;1.80;;;1.17;;
23728;SDS011;12045;60.214;24.724;2023-12-29T01:56:27;1.90;;;1.10;;
23728;SDS011;12045;60.214;24.724;2023-12-29T01:58:54;1.03;;;1.00;;
23728;SDS011;12045;60.214;24.724;2023-12-29T02:01:36;2.37;;;1.33;;
23728;SDS011;12045;60.214;24.724;2023-12-29T02:04:07;2.17;;;1.23;;
23728;SDS011;12045;60.214;24.724;2023-12-29T02:06:39;1.80;;;1.20;;
23728;SDS011;12045;60.214;24.724;2023-12-29T02:09:07;1.50;;;1.23;;
23728;SDS011;12045;60.214;24.724;2023-12-29T02:11:36;1.67;;;1.00;;
23728;SDS011;12045;60.214;24.724;2023-12-29T02:14:05;2.47;;;1.17;;
23728;SDS011;12045;60.214;24.724;2023-12-29T02:16:47;1.37;;;1.10;;
23728;SDS011;12045;60.214;24.724;2023-12-29T02:19:25;1.13;;;1.00;;
23728;SDS011;12045;60.214;24.724;2023-12-29T02:21:57;1.93;;;1.20;;
23728;SDS011;12045;60.214;24.724;2023-12-29T02:24:25;2.70;;;1.13;;
23728;SDS011;12045;60.214;24.724;2023-12-29T02:26:53;2.10;;;1.47;;
23728;SDS011;12045;60.214;24.724;2023-12-29T02:29:33;1.63;;;1.20;;
23728;SDS011;12045;60.214;24.724;2023-12-29T02:32:01;3.73;;;1.30;;
23728;SDS011;12045;60.214;24.724;2023-12-29T02:34:31;1.77;;;1.20;;
23728;SDS011;12045;60.214;24.724;2023-12-29T02:37:01;2.57;;;1.20;;
23728;SDS011;12045;60.214;24.724;2023-12-29T02:39:30;3.47;;;1.40;;
23728;SDS011;12045;60.214;24.724;2023-12-29T02:41:58;1.53;;;1.37;;
23728;SDS011;12045;60.214;24.724;2023-12-29T02:44:26;1.30;;;0.90;;
23728;SDS011;12045;60.214;24.724;2023-12-29T02:46:54;4.47;;;0.90;;
23728;SDS011;12045;60.214;24.724;2023-12-29T02:49:22;1.37;;;1.10;;
23728;SDS011;12045;60.214;24.724;2023-12-29T02:51:51;1.93;;;1.10;;
23728;SDS011;12045;60.214;24.724;2023-12-29T02:54:18;0.93;;;0.80;;
23728;SDS011;12045;60.214;24.724;2023-12-29T02:56:47;0.70;;;0.67;;
23728;SDS011;12045;60.214;24.724;2023-12-29T02:59:14;1.57;;;1.20;;
23728;SDS011;12045;60.214;24.724;2023-12-29T03:01:42;2.00;;;0.70;;
23728;SDS011;12045;60.214;24.724;2023-12-29T03:04:10;2.20;;;1.30;;
23728;SDS011;12045;60.214;24.724;2023-12-29T03:06:40;2.03;;;1.20;;
23728;SDS011;12045;60.214;24.724;2023-12-29T03:09:09;2.93;;;1.10;;
23728;SDS011;12045;60.214;24.724;2023-12-29T03:11:37;2.63;;;1.47;;
23728;SDS011;12045;60.214;24.724;2023-12-29T03:14:05;1.93;;;1.03;;
23728;SDS011;12045;60.214;24.724;2023-12-29T03:16:34;4.10;;;1.50;;
23728;SDS011;12045;60.214;24.724;2023-12-29T03:19:03;2.57;;;1.53;;
23728;SDS011;12045;60.214;24.724;2023-12-29T03:21:32;1.97;;;1.27;;
23728;SDS011;12045;60.214;24.724;2023-12-29T03:24:01;1.80;;;1.30;;
23728;SDS011;12045;60.214;24.724;2023-12-29T03:26:29;5.07;;;1.50;;
23728;SDS011;12045;60.214;24.724;2023-12-29T03:28:58;1.80;;;1.33;;
23728;SDS011;12045;60.214;24.724;2023-12-29T03:31:28;1.80;;;1.40;;
23728;SDS011;12045;60.214;24.724;2023-12-29T03:33:56;2.97;;;1.60;;
23728;SDS011;12045;60.214;24.724;2023-12-29T03:36:28;1.90;;;1.37;;
23728;SDS011;12045;60.214;24.724;2023-12-29T03:38:57;4.10;;;1.70;;
23728;SDS011;12045;60.214;24.724;2023-12-29T03:41:24;1.97;;;1.63;;
23728;SDS011;12045;60.214;24.724;2023-12-29T03:43:54;3.07;;;1.53;;
23728;SDS011;12045;60.214;24.724;2023-12-29T03:46:23;1.50;;;1.40;;
23728;SDS011;12045;60.214;24.724;2023-12-29T03:48:51;4.27;;;1.70;;
23728;SDS011;12045;60.214;24.724;2023-12-29T03:51:20;2.20;;;1.40;;
23728;SDS011;12045;60.214;24.724;2023-12-29T03:53:48;4.20;;;1.53;;
23728;SDS011;12045;60.214;24.724;2023-12-29T03:56:17;2.43;;;1.60;;
23728;SDS011;12045;60.214;24.724;2023-12-29T03:58:46;1.57;;;1.40;;
23728;SDS011;12045;60.214;24.724;2023-12-29T04:01:15;2.63;;;1.80;;
23728;SDS011;12045;60.214;24.724;2023-12-29T04:03:44;1.47;;;1.37;;
23728;SDS011;12045;60.214;24.724;2023-12-29T04:06:12;2.27;;;1.37;;
23728;SDS011;12045;60.214;24.724;2023-12-29T04:08:40;1.77;;;1.57;;
23728;SDS011;12045;60.214;24.724;2023-12-29T04:11:08;2.33;;;1.57;;
23728;SDS011;12045;60.214;24.724;2023-12-29T04:13:35;5.60;;;1.87;;
23728;SDS011;12045;60.214;24.724;2023-12-29T04:16:04;4.70;;;1.67;;
23728;SDS011;12045;60.214;24.724;2023-12-29T04:18:32;2.57;;;1.60;;
23728;SDS011;12045;60.214;24.724;2023-12-29T04:21:00;1.97;;;1.50;;
23728;SDS011;12045;60.214;24.724;2023-12-29T04:23:28;1.83;;;1.53;;
23728;SDS011;12045;60.214;24.724;2023-12-29T04:25:57;3.43;;;1.47;;
23728;SDS011;12045;60.214;24.724;2023-12-29T04:28:24;2.63;;;1.70;;
23728;SDS011;12045;60.214;24.724;2023-12-29T04:30:54;2.60;;;1.30;;
23728;SDS011;12045;60.214;24.724;2023-12-29T04:33:22;2.20;;;1.23;;
23728;SDS011;12045;60.214;24.724;2023-12-29T04:35:51;1.90;;;1.70;;
23728;SDS011;12045;60.214;24.724;2023-12-29T04:38:19;2.60;;;1.47;;
23728;SDS011;12045;60.214;24.724;2023-12-29T04:40:47;1.93;;;1.40;;
23728;SDS011;12045;60.214;24.724;2023-12-29T04:43:16;3.53;;;1.43;;
23728;SDS011;12045;60.214;24.724;2023-12-29T04:45:44;2.47;;;1.73;;
23728;SDS011;12045;60.214;24.724;2023-12-29T04:48:12;5.80;;;1.60;;
23728;SDS011;12045;60.214;24.724;2023-12-29T04:50:41;3.33;;;1.90;;
23728;SDS011;12045;60.214;24.724;2023-12-29T04:53:09;2.30;;;1.47;;
23728;SDS011;12045;60.214;24.724;2023-12-29T04:55:41;2.73;;;1.57;;
23728;SDS011;12045;60.214;24.724;2023-12-29T04:58:09;4.63;;;1.60;;
23728;SDS011;12045;60.214;24.724;2023-12-29T05:00:38;2.57;;;1.60;;
23728;SDS011;12045;60.214;24.724;2023-12-29T05:03:08;1.73;;;1.30;;
23728;SDS011;12045;60.214;24.724;2023-12-29T05:05:37;1.93;;;1.30;;
23728;SDS011;12045;60.214;24.724;2023-12-29T05:08:06;2.13;;;1.40;;
23728;SDS011;12045;60.214;24.724;2023-12-29T05:10:34;2.03;;;1.53;;
23728;SDS011;12045;60.214;24.724;2023-12-29T05:13:04;1.80;;;1.43;;
23728;SDS011;12045;60.214;24.724;2023-12-29T05:15:32;2.13;;;1.80;;
23728;SDS011;12045;60.214;24.724;2023-12-29T05:18:00;2.73;;;1.87;;
23728;SDS011;12045;60.214;24.724;2023-12-29T05:20:30;4.87;;;1.50;;
23728;SDS011;12045;60.214;24.724;2023-12-29T05:22:59;3.70;;;1.93;;
23728;SDS011;12045;60.214;24.724;2023-12-29T05:25:28;1.77;;;1.40;;
23728;SDS011;12045;60.214;24.724;2023-12-29T05:27:57;2.93;;;1.50;;
23728;SDS011;12045;60.214;24.724;2023-12-29T05:30:26;3.40;;;2.03;;
23728;SDS011;12045;60.214;24.724;2023-12-29T05:32:54;4.37;;;1.93;;
23728;SDS011;12045;60.214;24.724;2023-12-29T05:35:23;2.03;;;1.47;;
23728;SDS011;12045;60.214;24.724;2023-12-29T05:37:50;3.07;;;2.17;;
23728;SDS011;12045;60.214;24.724;2023-12-29T05:40:19;1.57;;;1.47;;
23728;SDS011;12045;60.214;24.724;2023-12-29T05:42:47;3.13;;;1.40;;
23728;SDS011;12045;60.214;24.724;2023-12-29T05:45:16;1.87;;;1.30;;
23728;SDS011;12045;60.214;24.724;2023-12-29T05:47:46;2.47;;;1.73;;
23728;SDS011;12045;60.214;24.724;2023-12-29T05:50:15;6.07;;;2.20;;
23728;SDS011;12045;60.214;24.724;2023-12-29T05:52:43;2.70;;;1.53;;
23728;SDS011;12045;60.214;24.724;2023-12-29T05:55:12;3.50;;;2.03;;
23728;SDS011;12045;60.214;24.724;2023-12-29T05:57:40;3.57;;;1.87;;
23728;SDS011;12045;60.214;24.724;2023-12-29T06:00:09;4.20;;;2.40;;
23728;SDS011;12045;60.214;24.724;2023-12-29T06:02:42;3.40;;;2.10;;
23728;SDS011;12045;60.214;24.724;2023-12-29T06:05:12;3.07;;;1.67;;
23728;SDS011;12045;60.214;24.724;2023-12-29T06:07:40;2.30;;;2.00;;
23728;SDS011;12045;60.214;24.724;2023-12-29T06:10:07;2.30;;;1.90;;
23728;SDS011;12045;60.214;24.724;2023-12-29T06:12:36;3.63;;;2.20;;
23728;SDS011;12045;60.214;24.724;2023-12-29T06:15:05;3.07;;;2.20;;
23728;SDS011;12045;60.214;24.724;2023-12-29T06:17:33;3.00;;;2.27;;
23728;SDS011;12045;60.214;24.724;2023-12-29T06:20:04;4.33;;;2.10;;
23728;SDS011;12045;60.214;24.724;2023-12-29T06:22:33;3.80;;;2.47;;
23728;SDS011;12045;60.214;24.724;2023-12-29T06:25:01;3.10;;;2.03;;
23728;SDS011;12045;60.214;24.724;2023-12-29T06:27:30;1.70;;;1.60;;
23728;SDS011;12045;60.214;24.724;2023-12-29T06:30:00;3.57;;;2.43;;
23728;SDS011;12045;60.214;24.724;2023-12-29T06:32:28;4.70;;;2.50;;
23728;SDS011;12045;60.214;24.724;2023-12-29T06:34:57;3.30;;;2.30;;
23728;SDS011;12045;60.214;24.724;2023-12-29T06:37:24;3.10;;;2.10;;
23728;SDS011;12045;60.214;24.724;2023-12-29T06:39:52;5.93;;;2.20;;
23728;SDS011;12045;60.214;24.724;2023-12-29T06:42:21;3.27;;;2.30;;
23728;SDS011;12045;60.214;24.724;2023-12-29T06:44:50;4.73;;;2.27;;
23728;SDS011;12045;60.214;24.724;2023-12-29T06:47:17;4.17;;;2.43;;
23728;SDS011;12045;60.214;24.724;2023-12-29T06:49:45;3.83;;;2.20;;
23728;SDS011;12045;60.214;24.724;2023-12-29T06:52:13;2.83;;;2.50;;
23728;SDS011;12045;60.214;24.724;2023-12-29T06:54:42;3.50;;;2.33;;
23728;SDS011;12045;60.214;24.724;2023-12-29T06:57:10;3.27;;;2.33;;
23728;SDS011;12045;60.214;24.724;2023-12-29T06:59:42;3.80;;;2.60;;
23728;SDS011;12045;60.214;24.724;2023-12-29T07:02:09;4.23;;;2.33;;
23728;SDS011;12045;60.214;24.724;2023-12-29T07:04:40;6.13;;;2.83;;
23728;SDS011;12045;60.214;24.724;2023-12-29T07:07:11;3.30;;;2.53;;
23728;SDS011;12045;60.214;24.724;2023-12-29T07:09:40;2.77;;;1.53;;
23728;SDS011;12045;60.214;24.724;2023-12-29T07:12:09;5.77;;;2.63;;
23728;SDS011;12045;60.214;24.724;2023-12-29T07:14:37;3.27;;;2.40;;
23728;SDS011;12045;60.214;24.724;2023-12-29T07:17:05;4.47;;;2.97;;
23728;SDS011;12045;60.214;24.724;2023-12-29T07:19:33;3.23;;;2.43;;
23728;SDS011;12045;60.214;24.724;2023-12-29T07:22:07;4.33;;;2.33;;
23728;SDS011;12045;60.214;24.724;2023-12-29T07:24:36;4.57;;;2.50;;
23728;SDS011;12045;60.214;24.724;2023-12-29T07:27:04;5.20;;;2.70;;
23728;SDS011;12045;60.214;24.724;2023-12-29T07:29:33;4.87;;;2.77;;
23728;SDS011;12045;60.214;24.724;2023-12-29T07:32:01;3.10;;;2.37;;
23728;SDS011;12045;60.214;24.724;2023-12-29T07:34:30;5.23;;;2.77;;
23728;SDS011;12045;60.214;24.724;2023-12-29T07:36:58;3.80;;;2.50;;
23728;SDS011;12045;60.214;24.724;2023-12-29T07:39:28;4.90;;;2.23;;
23728;SDS011;12045;60.214;24.724;2023-12-29T07:41:55;3.50;;;2.47;;
23728;SDS011;12045;60.214;24.724;2023-12-29T07:44:23;4.00;;;1.87;;
23728;SDS011;12045;60.214;24.724;2023-12-29T07:46:52;3.37;;;2.30;;
23728;SDS011;12045;60.214;24.724;2023-12-29T07:49:20;3.50;;;2.30;;
23728;SDS011;12045;60.214;24.724;2023-12-29T07:51:48;4.77;;;2.33;;
23728;SDS011;12045;60.214;24.724;2023-12-29T07:54:18;3.47;;;1.70;;
23728;SDS011;12045;60.214;24.724;2023-12-29T07:56:46;3.10;;;2.17;;
23728;SDS011;12045;60.214;24.724;2023-12-29T07:59:17;4.83;;;2.73;;
23728;SDS011;12045;60.214;24.724;2023-12-29T08:01:46;2.67;;;2.00;;
23728;SDS011;12045;60.214;24.724;2023-12-29T08:04:15;3.17;;;1.97;;
23728;SDS011;12045;60.214;24.724;2023-12-29T08:06:43;1.93;;;1.57;;
23728;SDS011;12045;60.214;24.724;2023-12-29T08:09:11;3.83;;;1.50;;
23728;SDS011;12045;60.214;24.724;2023-12-29T08:11:39;2.47;;;2.07;;
23728;SDS011;12045;60.214;24.724;2023-12-29T08:14:09;3.63;;;1.70;;
23728;SDS011;12045;60.214;24.724;2023-12-29T08:16:39;3.60;;;2.20;;
23728;SDS011;12045;60.214;24.724;2023-12-29T08:19:10;3.63;;;2.30;;
23728;SDS011;12045;60.214;24.724;2023-12-29T08:21:37;2.37;;;1.93;;
23728;SDS011;12045;60.214;24.724;2023-12-29T08:24:05;3.87;;;2.20;;
23728;SDS011;12045;60.214;24.724;2023-12-29T08:26:33;1.27;;;1.10;;
23728;SDS011;12045;60.214;24.724;2023-12-29T08:29:02;3.33;;;2.07;;
23728;SDS011;12045;60.214;24.724;2023-12-29T08:31:29;4.73;;;2.40;;
23728;SDS011;12045;60.214;24.724;2023-12-29T08:33:57;3.30;;;2.57;;
23728;SDS011;12045;60.214;24.724;2023-12-29T08:36:26;3.43;;;2.53;;
23728;SDS011;12045;60.214;24.724;2023-12-29T08:38:54;2.33;;;1.47;;
23728;SDS011;12045;60.214;24.724;2023-12-29T08:41:24;3.30;;;2.10;;
23728;SDS011;12045;60.214;24.724;2023-12-29T08:43:54;3.10;;;2.23;;
23728;SDS011;12045;60.214;24.724;2023-12-29T08:46:24;3.80;;;2.20;;
23728;SDS011;12045;60.214;24.724;2023-12-29T08:48:52;3.17;;;2.30;;
23728;SDS011;12045;60.214;24.724;2023-12-29T08:51:23;4.03;;;2.03;;
23728;SDS011;12045;60.214;24.724;2023-12-29T08:53:52;4.80;;;2.03;;
23728;SDS011;12045;60.214;24.724;2023-12-29T08:56:20;3.50;;;2.40;;
23728;SDS011;12045;60.214;24.724;2023-12-29T08:58:47;3.50;;;2.43;;
23728;SDS011;12045;60.214;24.724;2023-12-29T09:01:15;3.50;;;2.37;;
23728;SDS011;12045;60.214;24.724;2023-12-29T09:03:44;2.73;;;1.93;;
23728;SDS011;12045;60.214;24.724;2023-12-29T09:06:11;4.13;;;2.10;;
23728;SDS011;12045;60.214;24.724;2023-12-29T09:08:40;4.43;;;2.60;;
23728;SDS011;12045;60.214;24.724;2023-12-29T09:11:08;3.33;;;2.10;;
23728;SDS011;12045;60.214;24.724;2023-12-29T09:13:40;3.90;;;2.63;;
23728;SDS011;12045;60.214;24.724;2023-12-29T09:16:09;3.17;;;2.03;;
23728;SDS011;12045;60.214;24.724;2023-12-29T09:18:38;3.40;;;2.50;;
23728;SDS011;12045;60.214;24.724;2023-12-29T09:21:06;3.63;;;2.23;;
23728;SDS011;12045;60.214;24.724;2023-12-29T09:23:35;3.53;;;2.07;;
23728;SDS011;12045;60.214;24.724;2023-12-29T09:26:05;2.97;;;1.90;;
23728;SDS011;12045;60.214;24.724;2023-12-29T09:28:33;3.70;;;2.30;;
23728;SDS011;12045;60.214;24.724;2023-12-29T09:31:01;3.47;;;2.20;;
23728;SDS011;12045;60.214;24.724;2023-12-29T09:33:29;5.60;;;3.13;;
23728;SDS011;12045;60.214;24.724;2023-12-29T09:35:57;8.80;;;2.80;;
23728;SDS011;12045;60.214;24.724;2023-12-29T09:38:25;1.80;;;1.60;;
23728;SDS011;12045;60.214;24.724;2023-12-29T09:40:53;3.13;;;2.27;;
23728;SDS011;12045;60.214;24.724;2023-12-29T09:43:25;2.60;;;2.27;;
23728;SDS011;12045;60.214;24.724;2023-12-29T09:45:55;4.47;;;2.67;;
23728;SDS011;12045;60.214;24.724;2023-12-29T09:48:24;5.70;;;2.80;;
23728;SDS011;12045;60.214;24.724;2023-12-29T09:50:54;4.80;;;2.53;;
23728;SDS011;12045;60.214;24.724;2023-12-29T09:53:23;4.07;;;2.30;;
23728;SDS011;12045;60.214;24.724;2023-12-29T09:55:53;2.97;;;2.27;;
23728;SDS011;12045;60.214;24.724;2023-12-29T09:58:24;3.03;;;2.00;;
23728;SDS011;12045;60.214;24.724;2023-12-29T10:00:52;3.00;;;2.17;;
23728;SDS011;12045;60.214;24.724;2023-12-29T10:03:21;5.70;;;2.30;;
23728;SDS011;12045;60.214;24.724;2023-12-29T10:05:50;2.97;;;2.10;;
23728;SDS011;12045;60.214;24.724;2023-12-29T10:08:23;2.30;;;1.87;;
23728;SDS011;12045;60.214;24.724;2023-12-29T10:10:53;3.50;;;2.47;;
23728;SDS011;12045;60.214;24.724;2023-12-29T10:13:26;2.40;;;1.90;;
23728;SDS011;12045;60.214;24.724;2023-12-29T10:18:42;2.80;;;2.10;;
23728;SDS011;12045;60.214;24.724;2023-12-29T10:21:27;3.57;;;1.97;;
23728;SDS011;12045;60.214;24.724;2023-12-29T10:24:17;3.57;;;2.40;;
23728;SDS011;12045;60.214;24.724;2023-12-29T10:26:47;2.33;;;2.13;;
23728;SDS011;12045;60.214;24.724;2023-12-29T10:29:19;3.17;;;1.97;;
23728;SDS011;12045;60.214;24.724;2023-12-29T10:31:49;2.03;;;1.50;;
23728;SDS011;12045;60.214;24.724;2023-12-29T10:34:23;3.57;;;1.93;;
23728;SDS011;12045;60.214;24.724;2023-12-29T10:37:00;2.73;;;1.90;;
23728;SDS011;12045;60.214;24.724;2023-12-29T10:39:30;6.67;;;2.63;;
23728;SDS011;12045;60.214;24.724;2023-12-29T10:42:02;1.93;;;1.67;;
23728;SDS011;12045;60.214;24.724;2023-12-29T10:44:34;2.27;;;1.87;;
23728;SDS011;12045;60.214;24.724;2023-12-29T10:47:08;1.47;;;0.97;;
23728;SDS011;12045;60.214;24.724;2023-12-29T10:49:39;3.77;;;1.93;;
23728;SDS011;12045;60.214;24.724;2023-12-29T10:52:12;4.83;;;2.33;;
23728;SDS011;12045;60.214;24.724;2023-12-29T10:54:42;2.33;;;1.80;;
23728;SDS011;12045;60.214;24.724;2023-12-29T10:57:11;2.37;;;1.80;;
23728;SDS011;12045;60.214;24.724;2023-12-29T10:59:39;3.63;;;2.50;;
23728;SDS011;12045;60.214;24.724;2023-12-29T11:02:11;2.30;;;2.10;;
23728;SDS011;12045;60.214;24.724;2023-12-29T11:04:42;4.37;;;2.30;;
23728;SDS011;12045;60.214;24.724;2023-12-29T11:07:11;3.53;;;2.30;;
23728;SDS011;12045;60.214;24.724;2023-12-29T11:09:40;4.37;;;2.37;;
23728;SDS011;12045;60.214;24.724;2023-12-29T11:12:10;6.83;;;2.37;;
23728;SDS011;12045;60.214;24.724;2023-12-29T11:14:41;3.90;;;2.30;;
23728;SDS011;12045;60.214;24.724;2023-12-29T11:17:12;4.93;;;2.33;;
23728;SDS011;12045;60.214;24.724;2023-12-29T11:19:45;3.17;;;2.45;;
23728;SDS011;12045;60.214;24.724;2023-12-29T11:22:16;2.97;;;2.17;;
23728;SDS011;12045;60.214;24.724;2023-12-29T11:24:48;5.07;;;2.00;;
23728;SDS011;12045;60.214;24.724;2023-12-29T11:27:16;3.83;;;2.30;;
23728;SDS011;12045;60.214;24.724;2023-12-29T11:29:44;2.27;;;1.90;;
23728;SDS011;12045;60.214;24.724;2023-12-29T11:32:16;2.43;;;1.43;;
23728;SDS011;12045;60.214;24.724;2023-12-29T11:34:54;5.17;;;2.00;;
23728;SDS011;12045;60.214;24.724;2023-12-29T11:37:37;3.27;;;1.77;;
23728;SDS011;12045;60.214;24.724;2023-12-29T11:40:35;3.43;;;1.67;;
23728;SDS011;12045;60.214;24.724;2023-12-29T11:43:14;2.17;;;1.70;;
23728;SDS011;12045;60.214;24.724;2023-12-29T11:45:45;2.77;;;1.77;;
23728;SDS011;12045;60.214;24.724;2023-12-29T11:48:14;2.93;;;2.10;;
23728;SDS011;12045;60.214;24.724;2023-12-29T11:53:56;3.97;;;2.03;;
23728;SDS011;12045;60.214;24.724;2023-12-29T11:56:36;2.47;;;1.40;;
23728;SDS011;12045;60.214;24.724;2023-12-29T12:01:41;1.20;;;1.10;;
23728;SDS011;12045;60.214;24.724;2023-12-29T12:07:17;2.53;;;1.97;;
23728;SDS011;12045;60.214;24.724;2023-12-29T12:12:48;1.30;;;1.20;;
23728;SDS011;12045;60.214;24.724;2023-12-29T12:20:38;2.00;;;1.50;;
23728;SDS011;12045;60.214;24.724;2023-12-29T12:23:17;1.43;;;1.30;;
23728;SDS011;12045;60.214;24.724;2023-12-29T12:25:45;4.97;;;1.57;;
23728;SDS011;12045;60.214;24.724;2023-12-29T12:28:14;1.27;;;1.17;;
23728;SDS011;12045;60.214;24.724;2023-12-29T12:30:43;2.90;;;1.60;;
23728;SDS011;12045;60.214;24.724;2023-12-29T12:33:11;2.23;;;1.60;;
23728;SDS011;12045;60.214;24.724;2023-12-29T12:35:41;1.63;;;1.50;;
23728;SDS011;12045;60.214;24.724;2023-12-29T12:40:40;1.97;;;1.67;;
23728;SDS011;12045;60.214;24.724;2023-12-29T12:43:11;2.40;;;1.90;;
23728;SDS011;12045;60.214;24.724;2023-12-29T12:45:42;2.50;;;2.03;;
23728;SDS011;12045;60.214;24.724;2023-12-29T12:50:51;2.60;;;1.83;;
23728;SDS011;12045;60.214;24.724;2023-12-29T12:53:22;4.63;;;2.20;;
23728;SDS011;12045;60.214;24.724;2023-12-29T12:55:50;2.50;;;2.00;;
23728;SDS011;12045;60.214;24.724;2023-12-29T12:58:19;2.60;;;2.17;;
23728;SDS011;12045;60.214;24.724;2023-12-29T13:00:48;2.03;;;1.73;;
23728;SDS011;12045;60.214;24.724;2023-12-29T13:03:20;3.07;;;1.80;;
23728;SDS011;12045;60.214;24.724;2023-12-29T13:05:48;2.40;;;1.80;;
23728;SDS011;12045;60.214;24.724;2023-12-29T13:08:16;2.53;;;1.90;;
23728;SDS011;12045;60.214;24.724;2023-12-29T13:11:00;2.00;;;1.63;;
23728;SDS011;12045;60.214;24.724;2023-12-29T13:13:37;2.67;;;1.60;;
23728;SDS011;12045;60.214;24.724;2023-12-29T13:16:06;3.43;;;2.00;;
23728;SDS011;12045;60.214;24.724;2023-12-29T13:18:35;2.37;;;1.47;;
23728;SDS011;12045;60.214;24.724;2023-12-29T13:21:06;2.27;;;1.80;;
23728;SDS011;12045;60.214;24.724;2023-12-29T13:23:34;4.23;;;2.30;;
23728;SDS011;12045;60.214;24.724;2023-12-29T13:26:04;3.03;;;1.73;;
23728;SDS011;12045;60.214;24.724;2023-12-29T13:28:36;4.20;;;1.87;;
23728;SDS011;12045;60.214;24.724;2023-12-29T13:31:07;2.63;;;2.00;;
23728;SDS011;12045;60.214;24.724;2023-12-29T13:36:26;1.77;;;1.40;;
23728;SDS011;12045;60.214;24.724;2023-12-29T13:41:59;2.53;;;1.60;;
23728;SDS011;12045;60.214;24.724;2023-12-29T13:44:29;2.30;;;1.60;;
23728;SDS011;12045;60.214;24.724;2023-12-29T13:46:58;1.97;;;1.50;;
23728;SDS011;12045;60.214;24.724;2023-12-29T13:49:26;2.80;;;1.87;;
23728;SDS011;12045;60.214;24.724;2023-12-29T13:51:58;2.40;;;1.80;;
23728;SDS011;12045;60.214;24.724;2023-12-29T13:54:28;1.73;;;1.43;;
23728;SDS011;12045;60.214;24.724;2023-12-29T13:56:58;2.57;;;1.73;;
23728;SDS011;12045;60.214;24.724;2023-12-29T13:59:30;4.63;;;1.70;;
23728;SDS011;12045;60.214;24.724;2023-12-29T14:02:03;2.10;;;1.43;;
23728;SDS011;12045;60.214;24.724;2023-12-29T14:04:50;1.77;;;1.10;;
23728;SDS011;12045;60.214;24.724;2023-12-29T14:07:19;1.93;;;1.17;;
23728;SDS011;12045;60.214;24.724;2023-12-29T14:09:55;1.40;;;1.30;;
23728;SDS011;12045;60.214;24.724;2023-12-29T14:12:23;2.80;;;1.53;;
23728;SDS011;12045;60.214;24.724;2023-12-29T14:14:53;1.33;;;1.10;;
23728;SDS011;12045;60.214;24.724;2023-12-29T14:17:23;1.73;;;1.37;;
23728;SDS011;12045;60.214;24.724;2023-12-29T14:19:52;2.10;;;1.40;;
23728;SDS011;12045;60.214;24.724;2023-12-29T14:22:23;2.07;;;1.53;;
23728;SDS011;12045;60.214;24.724;2023-12-29T14:25:00;1.70;;;1.37;;
23728;SDS011;12045;60.214;24.724;2023-12-29T14:27:35;1.50;;;1.13;;
23728;SDS011;12045;60.214;24.724;2023-12-29T14:30:03;2.17;;;1.40;;
23728;SDS011;12045;60.214;24.724;2023-12-29T14:32:33;1.30;;;1.07;;
23728;SDS011;12045;60.214;24.724;2023-12-29T14:35:00;1.43;;;1.07;;
23728;SDS011;12045;60.214;24.724;2023-12-29T14:37:37;1.30;;;1.13;;
23728;SDS011;12045;60.214;24.724;2023-12-29T14:40:06;0.95;;;0.80;;
23728;SDS011;12045;60.214;24.724;2023-12-29T14:42:39;3.37;;;1.50;;
23728;SDS011;12045;60.214;24.724;2023-12-29T14:45:08;1.60;;;1.00;;
23728;SDS011;12045;60.214;24.724;2023-12-29T14:47:36;1.33;;;1.20;;
23728;SDS011;12045;60.214;24.724;2023-12-29T14:50:04;1.20;;;1.00;;
23728;SDS011;12045;60.214;24.724;2023-12-29T14:52:35;1.43;;;1.30;;
23728;SDS011;12045;60.214;24.724;2023-12-29T14:55:02;3.20;;;1.13;;
23728;SDS011;12045;60.214;24.724;2023-12-29T14:57:31;2.20;;;1.20;;
23728;SDS011;12045;60.214;24.724;2023-12-29T14:59:59;1.57;;;1.07;;
23728;SDS011;12045;60.214;24.724;2023-12-29T15:02:26;4.00;;;1.40;;
23728;SDS011;12045;60.214;24.724;2023-12-29T15:04:54;1.80;;;1.03;;
23728;SDS011;12045;60.214;24.724;2023-12-29T15:07:21;1.20;;;1.07;;
23728;SDS011;12045;60.214;24.724;2023-12-29T15:09:56;2.07;;;1.57;;
23728;SDS011;12045;60.214;24.724;2023-12-29T15:12:27;3.37;;;1.47;;
23728;SDS011;12045;60.214;24.724;2023-12-29T15:14:56;0.90;;;0.80;;
23728;SDS011;12045;60.214;24.724;2023-12-29T15:17:24;1.43;;;1.13;;
23728;SDS011;12045;60.214;24.724;2023-12-29T15:19:53;1.47;;;1.03;;
23728;SDS011;12045;60.214;24.724;2023-12-29T15:22:21;1.47;;;1.13;;